Terminal Aerodrome Forecast
Issued by NWS

Home | Current Version | Previous Version | Text Only | Print | Product List | Glossary On
Versions: 1 2 3 4 5 6 7 8 9 10 11 12 13 14 15 16 17 18 19 20 21 22
000
FTUS43 KPAH 171700
TAFCGI
TAF
KCGI 171740Z 1718/1818 29008KT P6SM BKN035
     FM180100 30003KT P6SM BKN040
     FM180800 00000KT 3SM BR SCT002 OVC010
      TEMPO 1809/1813 1SM BR OVC005
     FM181600 27004KT 6SM BR SCT010 OVC025=

USA.gov is the U.S. government's official web portal to all federal, state and local government web resources and services.